Oak Leaf, Texas
Current Conditions -  °F | °C
As of 6:15 AM on Monday 20 Oct 2014 (Local Time) from KJWY Reporting Station
Clear Clear  
Wind Chill: 57°   Ceiling: Unl
Heat Index: 57°   Visibility: 10mi
Dew Point: 57°   Wind: 0mph
Humidity: 99%   Direction: NA
Pressure: 30.08"   Gusts: NA
Location:  32.515°N, 96.8153°W
Report Text: KJWY 201115Z AUTO 00000KT 10SM CLR 14/14 A3008 RMK AO2 T01390138
Loading
Personal Weather Stations






























Interactive Weather Map
Tropical Storm Tracking
New forecast layout! Learn more

10-Day Weather Forecast

Advertisements
Track Severe Weather on mobile